United States > Florida

Crestview, FL

11:57 PM CDT on July 06, 2015 (GMT -0500)
Ridgecrest Estates | | Change Station
CLOSE
Current Station
Personal Weather Station
Location: Crestview, FL
Elevation: 210 ft
Nearby Weather Stations

Elev 210 ft 30.76 °N, 86.58 °W | Updated 3 minutes ago

Partly Cloudy
Partly Cloudy
74.5 °F
Feels Like 72 °F
N
0.0
Wind Variable Wind from WNW

Today
High -- | Low -- °F
--% Chance of Precip.
Yesterday
High -- | Low -- °F
Precip. -- in
5:49 AM 7:53 PM
Waning Gibbous, 69% visible
Pressure 30.12 in
Visibility 8.0 miles
Clouds Clear
Heat Index 72 °F
Dew Point 73 °F
Humidity 96%
Rainfall 0.00 in
Snow Depth Not available.
UV 0 out of 12
Pollen 2.90 out of 12
Air Quality Not available.
Flu Activity Not available.
METAR KCEW 070453Z AUTO 00000KT 8SM CLR 23/22 A3013 RMK AO2 SLP198 T02330222

More Conditions Fewer Conditions

Pressure 30.12 in
Visibility 8.0 miles
Clouds Clear
Heat Index 72 °F
Dew Point 73 °F
Humidity 96%
Rainfall 0.00 in
Snow Depth Not available.
UV 0 out of 12
Pollen 2.90 out of 12
Air Quality Not available.
Flu Activity Not available.
METAR KCEW 070453Z AUTO 00000KT 8SM CLR 23/22 A3013 RMK AO2 SLP198 T02330222

More Conditions Fewer Conditions

10-Day Weather Forecast

×

Almanac

Astronomy

Jul. 06, 2015 Rise Set
Actual Time
Civil Twilight
Nautical Twilight
Astronomical Twilight
Moon
Length of Visible Light
Length of Day
Tomorrow will be .
, % of the Moon is Illuminated

Today's Extremes

State Highs State Lows

Community

WunderPhotos

Upload Photos

1,835,728 photos uploaded!

WunderBlogs® & News

Nearby

Air Quality

  Air Quality AQ Index Pollutant
Not available.

Snow Depth

Station Depth Elevation

Earthquake Activity

City Distance Mag. Time & Date
Minimum magnitude displayed is 2.5.

Coastal Water Temperatures

Place Temperature

Stations

Nearby Weather Stations

Station Location Temp. Windchill Dew Point Humidity Wind Precip. Elev Updated Type